sensor_id;sensor_type;location;lat;lon;timestamp;P1;durP1;ratioP1;P2;durP2;ratioP2
2630;SDS011;1325;48.414;9.952;2022-07-23T00:01:25;32.80;;;6.90;;
2630;SDS011;1325;48.414;9.952;2022-07-23T00:03:55;36.40;;;7.73;;
2630;SDS011;1325;48.414;9.952;2022-07-23T00:06:23;34.50;;;7.97;;
2630;SDS011;1325;48.414;9.952;2022-07-23T00:08:50;37.60;;;7.20;;
2630;SDS011;1325;48.414;9.952;2022-07-23T00:11:17;33.40;;;6.60;;
2630;SDS011;1325;48.414;9.952;2022-07-23T00:13:47;35.37;;;6.93;;
2630;SDS011;1325;48.414;9.952;2022-07-23T00:16:14;31.30;;;6.40;;
2630;SDS011;1325;48.414;9.952;2022-07-23T00:18:42;32.20;;;7.47;;
2630;SDS011;1325;48.414;9.952;2022-07-23T00:21:10;33.03;;;7.07;;
2630;SDS011;1325;48.414;9.952;2022-07-23T00:23:37;35.00;;;8.50;;
2630;SDS011;1325;48.414;9.952;2022-07-23T00:26:05;32.50;;;6.83;;
2630;SDS011;1325;48.414;9.952;2022-07-23T00:28:33;33.93;;;7.40;;
2630;SDS011;1325;48.414;9.952;2022-07-23T00:31:00;33.93;;;8.30;;
2630;SDS011;1325;48.414;9.952;2022-07-23T00:33:28;32.67;;;7.63;;
2630;SDS011;1325;48.414;9.952;2022-07-23T00:35:56;32.80;;;7.53;;
2630;SDS011;1325;48.414;9.952;2022-07-23T00:38:24;34.40;;;7.73;;
2630;SDS011;1325;48.414;9.952;2022-07-23T00:40:51;33.00;;;8.30;;
2630;SDS011;1325;48.414;9.952;2022-07-23T00:43:19;32.53;;;7.90;;
2630;SDS011;1325;48.414;9.952;2022-07-23T00:45:47;33.67;;;8.10;;
2630;SDS011;1325;48.414;9.952;2022-07-23T00:48:14;30.90;;;6.83;;
2630;SDS011;1325;48.414;9.952;2022-07-23T00:50:42;32.77;;;9.03;;
2630;SDS011;1325;48.414;9.952;2022-07-23T00:53:09;32.43;;;7.90;;
2630;SDS011;1325;48.414;9.952;2022-07-23T00:55:38;33.93;;;7.80;;
2630;SDS011;1325;48.414;9.952;2022-07-23T00:58:06;33.87;;;7.20;;
2630;SDS011;1325;48.414;9.952;2022-07-23T01:00:35;32.37;;;7.60;;
2630;SDS011;1325;48.414;9.952;2022-07-23T01:03:02;32.00;;;7.10;;
2630;SDS011;1325;48.414;9.952;2022-07-23T01:05:30;32.77;;;7.67;;
2630;SDS011;1325;48.414;9.952;2022-07-23T01:07:57;31.70;;;7.50;;
2630;SDS011;1325;48.414;9.952;2022-07-23T01:10:24;33.27;;;7.50;;
2630;SDS011;1325;48.414;9.952;2022-07-23T01:13:00;32.77;;;8.20;;
2630;SDS011;1325;48.414;9.952;2022-07-23T01:15:29;33.53;;;8.60;;
2630;SDS011;1325;48.414;9.952;2022-07-23T01:17:57;34.90;;;8.73;;
2630;SDS011;1325;48.414;9.952;2022-07-23T01:20:25;35.10;;;9.40;;
2630;SDS011;1325;48.414;9.952;2022-07-23T01:22:54;33.70;;;9.87;;
2630;SDS011;1325;48.414;9.952;2022-07-23T01:25:21;34.50;;;9.53;;
2630;SDS011;1325;48.414;9.952;2022-07-23T01:27:49;35.17;;;9.03;;
2630;SDS011;1325;48.414;9.952;2022-07-23T01:30:18;34.60;;;9.77;;
2630;SDS011;1325;48.414;9.952;2022-07-23T01:32:45;34.00;;;9.10;;
2630;SDS011;1325;48.414;9.952;2022-07-23T01:35:13;34.10;;;9.10;;
2630;SDS011;1325;48.414;9.952;2022-07-23T01:37:40;34.10;;;8.70;;
2630;SDS011;1325;48.414;9.952;2022-07-23T01:40:09;33.70;;;7.90;;
2630;SDS011;1325;48.414;9.952;2022-07-23T01:42:36;32.90;;;8.27;;
2630;SDS011;1325;48.414;9.952;2022-07-23T01:45:04;34.27;;;8.60;;
2630;SDS011;1325;48.414;9.952;2022-07-23T01:47:32;32.93;;;8.13;;
2630;SDS011;1325;48.414;9.952;2022-07-23T01:50:00;32.77;;;7.77;;
2630;SDS011;1325;48.414;9.952;2022-07-23T01:52:27;33.67;;;8.60;;
2630;SDS011;1325;48.414;9.952;2022-07-23T01:54:54;33.40;;;7.77;;
2630;SDS011;1325;48.414;9.952;2022-07-23T01:57:23;32.40;;;7.53;;
2630;SDS011;1325;48.414;9.952;2022-07-23T01:59:50;34.10;;;9.00;;
2630;SDS011;1325;48.414;9.952;2022-07-23T02:02:17;32.80;;;8.23;;
2630;SDS011;1325;48.414;9.952;2022-07-23T02:04:44;32.80;;;8.00;;
2630;SDS011;1325;48.414;9.952;2022-07-23T02:07:12;32.80;;;8.40;;
2630;SDS011;1325;48.414;9.952;2022-07-23T02:09:39;35.73;;;9.07;;
2630;SDS011;1325;48.414;9.952;2022-07-23T02:12:26;34.60;;;8.37;;
2630;SDS011;1325;48.414;9.952;2022-07-23T02:14:54;33.43;;;8.03;;
2630;SDS011;1325;48.414;9.952;2022-07-23T02:17:35;32.80;;;8.40;;
2630;SDS011;1325;48.414;9.952;2022-07-23T02:20:02;35.67;;;9.43;;
2630;SDS011;1325;48.414;9.952;2022-07-23T02:22:30;35.70;;;10.40;;
2630;SDS011;1325;48.414;9.952;2022-07-23T02:24:57;36.00;;;10.87;;
2630;SDS011;1325;48.414;9.952;2022-07-23T02:27:26;33.17;;;9.57;;
2630;SDS011;1325;48.414;9.952;2022-07-23T02:29:54;35.83;;;10.50;;
2630;SDS011;1325;48.414;9.952;2022-07-23T02:32:22;33.93;;;11.03;;
2630;SDS011;1325;48.414;9.952;2022-07-23T02:34:50;36.00;;;10.27;;
2630;SDS011;1325;48.414;9.952;2022-07-23T02:37:17;36.00;;;10.83;;
2630;SDS011;1325;48.414;9.952;2022-07-23T02:39:45;33.83;;;9.23;;
2630;SDS011;1325;48.414;9.952;2022-07-23T02:42:13;35.03;;;9.87;;
2630;SDS011;1325;48.414;9.952;2022-07-23T02:44:42;33.33;;;9.10;;
2630;SDS011;1325;48.414;9.952;2022-07-23T02:47:20;34.60;;;9.80;;
2630;SDS011;1325;48.414;9.952;2022-07-23T02:49:47;34.40;;;9.90;;
2630;SDS011;1325;48.414;9.952;2022-07-23T02:52:14;34.50;;;10.20;;
2630;SDS011;1325;48.414;9.952;2022-07-23T02:54:42;34.30;;;9.60;;
2630;SDS011;1325;48.414;9.952;2022-07-23T02:57:09;33.77;;;9.23;;
2630;SDS011;1325;48.414;9.952;2022-07-23T02:59:36;36.83;;;9.93;;
2630;SDS011;1325;48.414;9.952;2022-07-23T03:02:05;33.70;;;9.43;;
2630;SDS011;1325;48.414;9.952;2022-07-23T03:04:32;35.00;;;9.70;;
2630;SDS011;1325;48.414;9.952;2022-07-23T03:06:59;33.83;;;9.47;;
2630;SDS011;1325;48.414;9.952;2022-07-23T03:09:26;34.20;;;9.53;;
2630;SDS011;1325;48.414;9.952;2022-07-23T03:11:54;39.17;;;10.73;;
2630;SDS011;1325;48.414;9.952;2022-07-23T03:14:21;34.00;;;9.87;;
2630;SDS011;1325;48.414;9.952;2022-07-23T03:16:48;33.33;;;9.20;;
2630;SDS011;1325;48.414;9.952;2022-07-23T03:19:17;39.47;;;10.30;;
2630;SDS011;1325;48.414;9.952;2022-07-23T03:21:44;34.70;;;10.00;;
2630;SDS011;1325;48.414;9.952;2022-07-23T03:24:11;34.43;;;10.00;;
2630;SDS011;1325;48.414;9.952;2022-07-23T03:26:39;37.90;;;10.33;;
2630;SDS011;1325;48.414;9.952;2022-07-23T03:29:06;34.43;;;9.20;;
2630;SDS011;1325;48.414;9.952;2022-07-23T03:31:33;35.10;;;9.57;;
2630;SDS011;1325;48.414;9.952;2022-07-23T03:34:01;35.47;;;9.50;;
2630;SDS011;1325;48.414;9.952;2022-07-23T03:36:30;38.57;;;10.57;;
2630;SDS011;1325;48.414;9.952;2022-07-23T03:38:57;34.70;;;9.83;;
2630;SDS011;1325;48.414;9.952;2022-07-23T03:41:24;35.00;;;9.30;;
2630;SDS011;1325;48.414;9.952;2022-07-23T03:43:52;35.20;;;9.40;;
2630;SDS011;1325;48.414;9.952;2022-07-23T03:46:19;34.83;;;9.73;;
2630;SDS011;1325;48.414;9.952;2022-07-23T03:48:46;34.97;;;9.90;;
2630;SDS011;1325;48.414;9.952;2022-07-23T03:51:13;34.63;;;9.50;;
2630;SDS011;1325;48.414;9.952;2022-07-23T03:53:42;34.00;;;10.10;;
2630;SDS011;1325;48.414;9.952;2022-07-23T03:56:09;34.97;;;9.80;;
2630;SDS011;1325;48.414;9.952;2022-07-23T03:58:36;37.30;;;11.33;;
2630;SDS011;1325;48.414;9.952;2022-07-23T04:01:04;35.17;;;10.53;;
2630;SDS011;1325;48.414;9.952;2022-07-23T04:03:31;40.63;;;11.20;;
2630;SDS011;1325;48.414;9.952;2022-07-23T04:05:58;37.53;;;11.00;;
2630;SDS011;1325;48.414;9.952;2022-07-23T04:08:25;37.50;;;11.60;;
2630;SDS011;1325;48.414;9.952;2022-07-23T04:10:54;37.93;;;10.63;;
2630;SDS011;1325;48.414;9.952;2022-07-23T04:13:22;34.87;;;10.23;;
2630;SDS011;1325;48.414;9.952;2022-07-23T04:15:49;38.30;;;11.33;;
2630;SDS011;1325;48.414;9.952;2022-07-23T04:18:16;34.80;;;10.13;;
2630;SDS011;1325;48.414;9.952;2022-07-23T04:20:46;36.50;;;10.57;;
2630;SDS011;1325;48.414;9.952;2022-07-23T04:23:13;36.40;;;11.50;;
2630;SDS011;1325;48.414;9.952;2022-07-23T04:25:40;33.50;;;10.17;;
2630;SDS011;1325;48.414;9.952;2022-07-23T04:28:09;36.60;;;11.00;;
2630;SDS011;1325;48.414;9.952;2022-07-23T04:30:36;34.90;;;10.13;;
2630;SDS011;1325;48.414;9.952;2022-07-23T04:33:04;35.50;;;10.93;;
2630;SDS011;1325;48.414;9.952;2022-07-23T04:35:32;37.00;;;10.60;;
2630;SDS011;1325;48.414;9.952;2022-07-23T04:37:59;35.83;;;10.67;;
2630;SDS011;1325;48.414;9.952;2022-07-23T04:40:27;34.70;;;10.00;;
2630;SDS011;1325;48.414;9.952;2022-07-23T04:42:56;36.70;;;10.70;;
2630;SDS011;1325;48.414;9.952;2022-07-23T04:45:25;37.37;;;9.80;;
2630;SDS011;1325;48.414;9.952;2022-07-23T04:47:52;34.47;;;11.00;;
2630;SDS011;1325;48.414;9.952;2022-07-23T04:50:19;36.67;;;11.97;;
2630;SDS011;1325;48.414;9.952;2022-07-23T04:52:47;34.00;;;9.40;;
2630;SDS011;1325;48.414;9.952;2022-07-23T04:55:15;35.97;;;10.83;;
2630;SDS011;1325;48.414;9.952;2022-07-23T04:57:42;35.30;;;10.57;;
2630;SDS011;1325;48.414;9.952;2022-07-23T05:00:10;35.90;;;11.80;;
2630;SDS011;1325;48.414;9.952;2022-07-23T05:02:40;38.57;;;11.77;;
2630;SDS011;1325;48.414;9.952;2022-07-23T05:05:07;36.33;;;10.60;;
2630;SDS011;1325;48.414;9.952;2022-07-23T05:07:34;34.17;;;9.47;;
2630;SDS011;1325;48.414;9.952;2022-07-23T05:10:02;33.57;;;9.60;;
2630;SDS011;1325;48.414;9.952;2022-07-23T05:12:30;33.50;;;10.13;;
2630;SDS011;1325;48.414;9.952;2022-07-23T05:14:57;34.30;;;10.10;;
2630;SDS011;1325;48.414;9.952;2022-07-23T05:17:25;35.57;;;9.73;;
2630;SDS011;1325;48.414;9.952;2022-07-23T05:19:53;33.27;;;9.13;;
2630;SDS011;1325;48.414;9.952;2022-07-23T05:22:20;40.47;;;11.10;;
2630;SDS011;1325;48.414;9.952;2022-07-23T05:24:47;35.80;;;10.13;;
2630;SDS011;1325;48.414;9.952;2022-07-23T05:27:14;34.43;;;9.60;;
2630;SDS011;1325;48.414;9.952;2022-07-23T05:29:41;35.90;;;10.13;;
2630;SDS011;1325;48.414;9.952;2022-07-23T05:32:08;36.37;;;10.13;;
2630;SDS011;1325;48.414;9.952;2022-07-23T05:34:35;33.40;;;9.27;;
2630;SDS011;1325;48.414;9.952;2022-07-23T05:37:04;38.50;;;10.37;;
2630;SDS011;1325;48.414;9.952;2022-07-23T05:39:32;34.50;;;10.00;;
2630;SDS011;1325;48.414;9.952;2022-07-23T05:41:59;35.93;;;9.43;;
2630;SDS011;1325;48.414;9.952;2022-07-23T05:44:26;34.80;;;9.33;;
2630;SDS011;1325;48.414;9.952;2022-07-23T05:46:53;33.60;;;8.77;;
2630;SDS011;1325;48.414;9.952;2022-07-23T05:49:20;35.03;;;8.10;;
2630;SDS011;1325;48.414;9.952;2022-07-23T05:51:48;36.50;;;8.10;;
2630;SDS011;1325;48.414;9.952;2022-07-23T05:54:17;35.20;;;8.53;;
2630;SDS011;1325;48.414;9.952;2022-07-23T05:56:44;35.30;;;8.20;;
2630;SDS011;1325;48.414;9.952;2022-07-23T05:59:11;34.80;;;8.20;;
2630;SDS011;1325;48.414;9.952;2022-07-23T06:01:39;33.60;;;7.23;;
2630;SDS011;1325;48.414;9.952;2022-07-23T06:04:06;34.27;;;9.20;;
2630;SDS011;1325;48.414;9.952;2022-07-23T06:06:34;34.70;;;8.40;;
2630;SDS011;1325;48.414;9.952;2022-07-23T06:09:01;33.87;;;9.10;;
2630;SDS011;1325;48.414;9.952;2022-07-23T06:11:30;32.90;;;7.70;;
2630;SDS011;1325;48.414;9.952;2022-07-23T06:13:57;33.77;;;7.90;;
2630;SDS011;1325;48.414;9.952;2022-07-23T06:16:24;35.90;;;8.10;;
2630;SDS011;1325;48.414;9.952;2022-07-23T06:18:51;33.10;;;7.70;;
2630;SDS011;1325;48.414;9.952;2022-07-23T06:21:18;32.57;;;7.70;;
2630;SDS011;1325;48.414;9.952;2022-07-23T06:23:45;33.50;;;7.93;;
2630;SDS011;1325;48.414;9.952;2022-07-23T06:26:12;32.57;;;7.10;;
2630;SDS011;1325;48.414;9.952;2022-07-23T06:28:41;33.90;;;7.70;;
2630;SDS011;1325;48.414;9.952;2022-07-23T06:31:08;35.03;;;7.83;;
2630;SDS011;1325;48.414;9.952;2022-07-23T06:33:35;33.67;;;7.97;;
2630;SDS011;1325;48.414;9.952;2022-07-23T06:36:02;32.93;;;6.93;;
2630;SDS011;1325;48.414;9.952;2022-07-23T06:38:32;35.40;;;7.60;;
2630;SDS011;1325;48.414;9.952;2022-07-23T06:41:00;34.20;;;8.60;;
2630;SDS011;1325;48.414;9.952;2022-07-23T06:43:27;36.50;;;8.80;;
2630;SDS011;1325;48.414;9.952;2022-07-23T06:45:57;33.27;;;8.20;;
2630;SDS011;1325;48.414;9.952;2022-07-23T06:48:24;33.93;;;8.20;;
2630;SDS011;1325;48.414;9.952;2022-07-23T06:50:52;33.20;;;8.53;;
2630;SDS011;1325;48.414;9.952;2022-07-23T06:53:19;34.93;;;9.77;;
2630;SDS011;1325;48.414;9.952;2022-07-23T06:55:47;34.73;;;8.77;;
2630;SDS011;1325;48.414;9.952;2022-07-23T06:58:14;34.73;;;9.10;;
2630;SDS011;1325;48.414;9.952;2022-07-23T07:00:41;33.60;;;8.17;;
2630;SDS011;1325;48.414;9.952;2022-07-23T07:03:09;35.80;;;8.00;;
2630;SDS011;1325;48.414;9.952;2022-07-23T07:05:36;34.27;;;6.67;;
2630;SDS011;1325;48.414;9.952;2022-07-23T07:08:04;33.53;;;7.73;;
2630;SDS011;1325;48.414;9.952;2022-07-23T07:10:31;33.57;;;7.00;;
2630;SDS011;1325;48.414;9.952;2022-07-23T07:12:59;35.73;;;7.80;;
2630;SDS011;1325;48.414;9.952;2022-07-23T07:15:26;35.40;;;6.77;;
2630;SDS011;1325;48.414;9.952;2022-07-23T07:17:53;33.90;;;7.00;;
2630;SDS011;1325;48.414;9.952;2022-07-23T07:20:21;33.23;;;6.17;;
2630;SDS011;1325;48.414;9.952;2022-07-23T07:22:49;32.90;;;6.47;;
2630;SDS011;1325;48.414;9.952;2022-07-23T07:25:17;34.60;;;7.03;;
2630;SDS011;1325;48.414;9.952;2022-07-23T07:27:44;34.50;;;6.60;;
2630;SDS011;1325;48.414;9.952;2022-07-23T07:30:12;33.80;;;7.47;;
2630;SDS011;1325;48.414;9.952;2022-07-23T07:32:39;34.83;;;7.80;;
2630;SDS011;1325;48.414;9.952;2022-07-23T07:35:07;33.67;;;6.30;;
2630;SDS011;1325;48.414;9.952;2022-07-23T07:37:56;35.23;;;7.10;;
2630;SDS011;1325;48.414;9.952;2022-07-23T07:40:23;33.70;;;6.47;;
2630;SDS011;1325;48.414;9.952;2022-07-23T07:42:51;35.13;;;7.73;;
2630;SDS011;1325;48.414;9.952;2022-07-23T07:45:22;34.53;;;6.90;;
2630;SDS011;1325;48.414;9.952;2022-07-23T07:47:50;34.47;;;7.03;;
2630;SDS011;1325;48.414;9.952;2022-07-23T07:50:18;33.73;;;6.40;;
2630;SDS011;1325;48.414;9.952;2022-07-23T07:52:45;32.90;;;5.70;;
2630;SDS011;1325;48.414;9.952;2022-07-23T07:55:14;33.50;;;6.20;;
2630;SDS011;1325;48.414;9.952;2022-07-23T07:57:41;33.30;;;5.93;;
2630;SDS011;1325;48.414;9.952;2022-07-23T08:00:09;34.17;;;6.37;;
2630;SDS011;1325;48.414;9.952;2022-07-23T08:02:41;34.87;;;5.90;;
2630;SDS011;1325;48.414;9.952;2022-07-23T08:05:10;34.37;;;6.70;;
2630;SDS011;1325;48.414;9.952;2022-07-23T08:07:37;34.03;;;6.13;;
2630;SDS011;1325;48.414;9.952;2022-07-23T08:10:05;35.17;;;6.67;;
2630;SDS011;1325;48.414;9.952;2022-07-23T08:12:40;33.17;;;5.77;;
2630;SDS011;1325;48.414;9.952;2022-07-23T08:15:09;32.80;;;5.60;;
2630;SDS011;1325;48.414;9.952;2022-07-23T08:17:38;33.77;;;6.60;;
2630;SDS011;1325;48.414;9.952;2022-07-23T08:20:06;33.23;;;5.77;;
2630;SDS011;1325;48.414;9.952;2022-07-23T08:22:41;32.50;;;5.60;;
2630;SDS011;1325;48.414;9.952;2022-07-23T08:25:13;34.03;;;5.90;;
2630;SDS011;1325;48.414;9.952;2022-07-23T08:27:42;33.23;;;5.50;;
2630;SDS011;1325;48.414;9.952;2022-07-23T08:30:10;35.70;;;6.50;;
2630;SDS011;1325;48.414;9.952;2022-07-23T08:32:53;33.90;;;6.00;;
2630;SDS011;1325;48.414;9.952;2022-07-23T08:35:23;34.03;;;5.80;;
2630;SDS011;1325;48.414;9.952;2022-07-23T08:37:53;33.23;;;5.73;;
2630;SDS011;1325;48.414;9.952;2022-07-23T08:40:20;32.70;;;5.73;;
2630;SDS011;1325;48.414;9.952;2022-07-23T08:42:50;33.47;;;6.17;;
2630;SDS011;1325;48.414;9.952;2022-07-23T08:45:18;32.93;;;5.80;;
2630;SDS011;1325;48.414;9.952;2022-07-23T08:47:48;33.47;;;6.17;;
2630;SDS011;1325;48.414;9.952;2022-07-23T08:50:17;34.53;;;7.03;;
2630;SDS011;1325;48.414;9.952;2022-07-23T08:52:45;34.77;;;7.30;;
2630;SDS011;1325;48.414;9.952;2022-07-23T08:55:13;35.23;;;7.17;;
2630;SDS011;1325;48.414;9.952;2022-07-23T08:57:42;34.87;;;7.03;;
2630;SDS011;1325;48.414;9.952;2022-07-23T09:00:11;35.73;;;7.70;;
2630;SDS011;1325;48.414;9.952;2022-07-23T09:02:40;36.27;;;7.77;;
2630;SDS011;1325;48.414;9.952;2022-07-23T09:05:08;35.23;;;7.30;;
2630;SDS011;1325;48.414;9.952;2022-07-23T09:07:37;36.50;;;7.90;;
2630;SDS011;1325;48.414;9.952;2022-07-23T09:10:34;34.53;;;7.57;;
2630;SDS011;1325;48.414;9.952;2022-07-23T09:13:30;35.00;;;8.10;;
2630;SDS011;1325;48.414;9.952;2022-07-23T09:16:05;33.20;;;7.53;;
2630;SDS011;1325;48.414;9.952;2022-07-23T09:18:39;34.40;;;8.17;;
2630;SDS011;1325;48.414;9.952;2022-07-23T09:21:20;35.03;;;6.63;;
2630;SDS011;1325;48.414;9.952;2022-07-23T09:23:51;36.20;;;7.17;;
2630;SDS011;1325;48.414;9.952;2022-07-23T09:26:23;34.30;;;7.43;;
2630;SDS011;1325;48.414;9.952;2022-07-23T09:28:57;33.87;;;7.73;;
2630;SDS011;1325;48.414;9.952;2022-07-23T09:31:32;34.40;;;7.80;;
2630;SDS011;1325;48.414;9.952;2022-07-23T09:34:09;37.90;;;7.43;;
2630;SDS011;1325;48.414;9.952;2022-07-23T09:36:40;33.30;;;6.93;;
2630;SDS011;1325;48.414;9.952;2022-07-23T09:39:08;34.50;;;7.23;;
2630;SDS011;1325;48.414;9.952;2022-07-23T09:41:36;36.83;;;7.60;;
2630;SDS011;1325;48.414;9.952;2022-07-23T09:44:07;34.50;;;7.77;;
2630;SDS011;1325;48.414;9.952;2022-07-23T09:46:42;33.97;;;7.40;;
2630;SDS011;1325;48.414;9.952;2022-07-23T09:49:12;34.50;;;7.67;;
2630;SDS011;1325;48.414;9.952;2022-07-23T09:51:45;34.40;;;7.30;;
2630;SDS011;1325;48.414;9.952;2022-07-23T09:54:22;33.97;;;6.97;;
2630;SDS011;1325;48.414;9.952;2022-07-23T09:56:59;34.53;;;7.43;;
2630;SDS011;1325;48.414;9.952;2022-07-23T09:59:34;35.13;;;7.27;;
2630;SDS011;1325;48.414;9.952;2022-07-23T10:02:05;34.23;;;7.10;;
2630;SDS011;1325;48.414;9.952;2022-07-23T10:04:37;33.87;;;7.30;;
2630;SDS011;1325;48.414;9.952;2022-07-23T10:07:05;35.70;;;7.27;;
2630;SDS011;1325;48.414;9.952;2022-07-23T10:09:36;34.50;;;7.67;;
2630;SDS011;1325;48.414;9.952;2022-07-23T10:12:05;33.73;;;7.17;;
2630;SDS011;1325;48.414;9.952;2022-07-23T10:14:41;34.37;;;6.83;;
2630;SDS011;1325;48.414;9.952;2022-07-23T10:17:10;34.10;;;7.03;;
2630;SDS011;1325;48.414;9.952;2022-07-23T10:19:38;34.93;;;8.07;;
2630;SDS011;1325;48.414;9.952;2022-07-23T10:22:06;35.77;;;8.00;;
2630;SDS011;1325;48.414;9.952;2022-07-23T10:24:41;36.60;;;7.93;;
2630;SDS011;1325;48.414;9.952;2022-07-23T10:30:15;35.00;;;8.40;;
2630;SDS011;1325;48.414;9.952;2022-07-23T10:33:05;35.67;;;8.00;;
2630;SDS011;1325;48.414;9.952;2022-07-23T10:35:52;36.47;;;7.90;;
2630;SDS011;1325;48.414;9.952;2022-07-23T10:38:25;34.10;;;7.50;;
2630;SDS011;1325;48.414;9.952;2022-07-23T10:40:57;36.63;;;7.30;;
2630;SDS011;1325;48.414;9.952;2022-07-23T10:43:26;35.60;;;7.70;;
2630;SDS011;1325;48.414;9.952;2022-07-23T10:45:55;34.23;;;8.07;;
2630;SDS011;1325;48.414;9.952;2022-07-23T10:58:05;34.83;;;7.70;;
2630;SDS011;1325;48.414;9.952;2022-07-23T11:00:34;35.67;;;7.83;;
2630;SDS011;1325;48.414;9.952;2022-07-23T11:03:03;33.63;;;7.50;;
2630;SDS011;1325;48.414;9.952;2022-07-23T11:05:44;34.97;;;8.30;;
2630;SDS011;1325;48.414;9.952;2022-07-23T11:08:13;35.07;;;8.17;;
2630;SDS011;1325;48.414;9.952;2022-07-23T11:10:49;34.40;;;8.17;;
2630;SDS011;1325;48.414;9.952;2022-07-23T11:13:32;34.03;;;7.93;;
2630;SDS011;1325;48.414;9.952;2022-07-23T11:16:22;37.90;;;8.20;;
2630;SDS011;1325;48.414;9.952;2022-07-23T11:19:03;34.70;;;7.90;;
2630;SDS011;1325;48.414;9.952;2022-07-23T11:21:45;36.33;;;7.80;;
2630;SDS011;1325;48.414;9.952;2022-07-23T11:24:15;36.07;;;8.33;;
2630;SDS011;1325;48.414;9.952;2022-07-23T11:26:48;37.67;;;8.17;;
2630;SDS011;1325;48.414;9.952;2022-07-23T11:29:41;34.67;;;7.60;;
2630;SDS011;1325;48.414;9.952;2022-07-23T11:37:54;36.17;;;8.27;;
2630;SDS011;1325;48.414;9.952;2022-07-23T11:40:31;36.00;;;8.53;;
2630;SDS011;1325;48.414;9.952;2022-07-23T11:42:59;35.50;;;8.30;;
2630;SDS011;1325;48.414;9.952;2022-07-23T11:45:32;35.73;;;8.33;;
2630;SDS011;1325;48.414;9.952;2022-07-23T11:48:01;34.83;;;8.70;;
2630;SDS011;1325;48.414;9.952;2022-07-23T11:50:29;34.50;;;8.27;;
2630;SDS011;1325;48.414;9.952;2022-07-23T11:52:58;35.07;;;8.97;;
2630;SDS011;1325;48.414;9.952;2022-07-23T11:55:25;36.40;;;9.53;;
2630;SDS011;1325;48.414;9.952;2022-07-23T11:57:53;36.00;;;9.10;;
2630;SDS011;1325;48.414;9.952;2022-07-23T12:00:22;44.87;;;10.20;;
2630;SDS011;1325;48.414;9.952;2022-07-23T12:02:52;38.13;;;9.73;;
2630;SDS011;1325;48.414;9.952;2022-07-23T12:05:24;37.00;;;10.80;;
2630;SDS011;1325;48.414;9.952;2022-07-23T12:07:53;34.77;;;10.23;;
2630;SDS011;1325;48.414;9.952;2022-07-23T12:10:24;32.80;;;5.80;;
2630;SDS011;1325;48.414;9.952;2022-07-23T12:12:54;31.77;;;5.33;;
2630;SDS011;1325;48.414;9.952;2022-07-23T12:15:24;31.10;;;5.80;;
2630;SDS011;1325;48.414;9.952;2022-07-23T12:17:57;32.37;;;8.07;;
2630;SDS011;1325;48.414;9.952;2022-07-23T12:20:26;32.27;;;8.10;;
2630;SDS011;1325;48.414;9.952;2022-07-23T12:22:57;33.27;;;8.60;;
2630;SDS011;1325;48.414;9.952;2022-07-23T12:25:28;32.97;;;7.43;;
2630;SDS011;1325;48.414;9.952;2022-07-23T12:27:58;32.50;;;6.90;;
2630;SDS011;1325;48.414;9.952;2022-07-23T12:30:29;32.40;;;5.80;;
2630;SDS011;1325;48.414;9.952;2022-07-23T12:32:59;35.70;;;6.80;;
2630;SDS011;1325;48.414;9.952;2022-07-23T12:35:31;30.90;;;5.90;;
2630;SDS011;1325;48.414;9.952;2022-07-23T12:38:03;32.97;;;5.90;;
2630;SDS011;1325;48.414;9.952;2022-07-23T12:40:33;30.00;;;5.63;;
2630;SDS011;1325;48.414;9.952;2022-07-23T12:43:03;30.00;;;4.90;;
2630;SDS011;1325;48.414;9.952;2022-07-23T12:45:43;32.17;;;5.90;;
2630;SDS011;1325;48.414;9.952;2022-07-23T12:48:17;31.23;;;5.40;;
2630;SDS011;1325;48.414;9.952;2022-07-23T12:50:54;31.53;;;6.13;;
2630;SDS011;1325;48.414;9.952;2022-07-23T12:53:26;31.67;;;5.33;;
2630;SDS011;1325;48.414;9.952;2022-07-23T12:56:01;30.90;;;5.33;;
2630;SDS011;1325;48.414;9.952;2022-07-23T12:58:39;31.40;;;5.83;;
2630;SDS011;1325;48.414;9.952;2022-07-23T13:01:09;31.77;;;6.77;;
2630;SDS011;1325;48.414;9.952;2022-07-23T13:03:54;31.60;;;5.83;;
2630;SDS011;1325;48.414;9.952;2022-07-23T13:06:28;31.00;;;6.03;;
2630;SDS011;1325;48.414;9.952;2022-07-23T13:08:58;32.70;;;7.10;;
2630;SDS011;1325;48.414;9.952;2022-07-23T13:11:27;33.50;;;6.50;;
2630;SDS011;1325;48.414;9.952;2022-07-23T13:13:54;32.00;;;6.70;;
2630;SDS011;1325;48.414;9.952;2022-07-23T13:16:21;32.67;;;6.60;;
2630;SDS011;1325;48.414;9.952;2022-07-23T13:18:48;32.60;;;6.33;;
2630;SDS011;1325;48.414;9.952;2022-07-23T13:21:15;32.90;;;6.40;;
2630;SDS011;1325;48.414;9.952;2022-07-23T13:23:42;32.57;;;6.10;;
2630;SDS011;1325;48.414;9.952;2022-07-23T13:26:10;33.60;;;7.37;;
2630;SDS011;1325;48.414;9.952;2022-07-23T13:28:38;35.00;;;7.70;;
2630;SDS011;1325;48.414;9.952;2022-07-23T13:31:05;33.20;;;7.10;;
2630;SDS011;1325;48.414;9.952;2022-07-23T13:33:33;32.10;;;8.00;;
2630;SDS011;1325;48.414;9.952;2022-07-23T13:36:00;34.10;;;8.47;;
2630;SDS011;1325;48.414;9.952;2022-07-23T13:38:27;33.20;;;8.87;;
2630;SDS011;1325;48.414;9.952;2022-07-23T13:40:55;32.80;;;8.43;;
2630;SDS011;1325;48.414;9.952;2022-07-23T13:43:23;34.07;;;8.10;;
2630;SDS011;1325;48.414;9.952;2022-07-23T13:45:52;34.20;;;8.40;;
2630;SDS011;1325;48.414;9.952;2022-07-23T13:48:19;33.90;;;9.30;;
2630;SDS011;1325;48.414;9.952;2022-07-23T13:50:47;35.10;;;9.50;;
2630;SDS011;1325;48.414;9.952;2022-07-23T13:53:17;33.77;;;9.10;;
2630;SDS011;1325;48.414;9.952;2022-07-23T13:55:46;35.17;;;9.10;;
2630;SDS011;1325;48.414;9.952;2022-07-23T13:58:15;33.57;;;8.67;;
2630;SDS011;1325;48.414;9.952;2022-07-23T14:00:44;34.27;;;9.10;;
2630;SDS011;1325;48.414;9.952;2022-07-23T14:03:14;34.20;;;9.60;;
2630;SDS011;1325;48.414;9.952;2022-07-23T14:05:42;35.67;;;9.67;;
2630;SDS011;1325;48.414;9.952;2022-07-23T14:08:10;35.10;;;8.87;;
2630;SDS011;1325;48.414;9.952;2022-07-23T14:10:37;34.83;;;9.27;;
2630;SDS011;1325;48.414;9.952;2022-07-23T14:13:04;33.80;;;8.47;;
2630;SDS011;1325;48.414;9.952;2022-07-23T14:15:32;38.70;;;9.63;;
2630;SDS011;1325;48.414;9.952;2022-07-23T14:17:59;34.67;;;8.87;;
2630;SDS011;1325;48.414;9.952;2022-07-23T14:20:27;32.70;;;9.37;;
2630;SDS011;1325;48.414;9.952;2022-07-23T14:22:54;34.37;;;10.00;;
2630;SDS011;1325;48.414;9.952;2022-07-23T14:25:25;33.30;;;8.93;;
2630;SDS011;1325;48.414;9.952;2022-07-23T14:27:53;34.37;;;9.47;;
2630;SDS011;1325;48.414;9.952;2022-07-23T14:30:20;34.87;;;9.00;;
2630;SDS011;1325;48.414;9.952;2022-07-23T14:32:48;35.90;;;10.43;;
2630;SDS011;1325;48.414;9.952;2022-07-23T14:35:16;34.53;;;9.27;;
2630;SDS011;1325;48.414;9.952;2022-07-23T14:37:45;34.60;;;9.10;;
2630;SDS011;1325;48.414;9.952;2022-07-23T14:40:12;36.10;;;9.90;;
2630;SDS011;1325;48.414;9.952;2022-07-23T14:42:39;34.70;;;9.27;;
2630;SDS011;1325;48.414;9.952;2022-07-23T14:45:07;35.00;;;10.03;;
2630;SDS011;1325;48.414;9.952;2022-07-23T14:47:34;36.83;;;9.90;;
2630;SDS011;1325;48.414;9.952;2022-07-23T14:50:02;37.27;;;8.97;;
2630;SDS011;1325;48.414;9.952;2022-07-23T14:52:29;37.87;;;9.97;;
2630;SDS011;1325;48.414;9.952;2022-07-23T14:54:58;39.03;;;9.60;;
2630;SDS011;1325;48.414;9.952;2022-07-23T14:57:25;34.90;;;9.70;;
2630;SDS011;1325;48.414;9.952;2022-07-23T14:59:52;36.53;;;10.60;;
2630;SDS011;1325;48.414;9.952;2022-07-23T15:02:21;36.23;;;10.70;;
2630;SDS011;1325;48.414;9.952;2022-07-23T15:04:48;37.50;;;12.10;;
2630;SDS011;1325;48.414;9.952;2022-07-23T15:07:15;39.23;;;11.90;;
2630;SDS011;1325;48.414;9.952;2022-07-23T15:09:42;34.63;;;11.37;;
2630;SDS011;1325;48.414;9.952;2022-07-23T15:12:11;36.27;;;11.57;;
2630;SDS011;1325;48.414;9.952;2022-07-23T15:14:38;36.97;;;11.70;;
2630;SDS011;1325;48.414;9.952;2022-07-23T15:17:05;35.47;;;12.03;;
2630;SDS011;1325;48.414;9.952;2022-07-23T15:19:32;35.67;;;11.67;;
2630;SDS011;1325;48.414;9.952;2022-07-23T15:21:59;34.93;;;12.27;;
2630;SDS011;1325;48.414;9.952;2022-07-23T15:24:26;36.43;;;12.50;;
2630;SDS011;1325;48.414;9.952;2022-07-23T15:26:53;38.20;;;11.63;;
2630;SDS011;1325;48.414;9.952;2022-07-23T15:29:22;34.50;;;12.03;;